sensor_id;sensor_type;location;lat;lon;timestamp;temperature;humidity
11762;DHT22;5938;47.098;15.474;2023-05-02T00:01:59;11.30;99.90
11762;DHT22;5938;47.098;15.474;2023-05-02T00:06:03;11.20;99.90
11762;DHT22;5938;47.098;15.474;2023-05-02T00:10:07;11.20;99.90
11762;DHT22;5938;47.098;15.474;2023-05-02T00:14:12;11.10;99.90
11762;DHT22;5938;47.098;15.474;2023-05-02T00:18:16;11.10;99.90
11762;DHT22;5938;47.098;15.474;2023-05-02T00:22:19;11.10;99.90
11762;DHT22;5938;47.098;15.474;2023-05-02T00:26:22;11.10;99.90
11762;DHT22;5938;47.098;15.474;2023-05-02T00:30:27;11.00;99.90
11762;DHT22;5938;47.098;15.474;2023-05-02T00:34:31;11.00;99.90
11762;DHT22;5938;47.098;15.474;2023-05-02T00:38:35;10.90;99.90
11762;DHT22;5938;47.098;15.474;2023-05-02T00:42:38;10.90;99.90
11762;DHT22;5938;47.098;15.474;2023-05-02T00:46:43;10.90;99.90
11762;DHT22;5938;47.098;15.474;2023-05-02T00:50:47;10.80;99.90
11762;DHT22;5938;47.098;15.474;2023-05-02T00:54:51;10.80;99.90
11762;DHT22;5938;47.098;15.474;2023-05-02T00:58:54;10.80;99.90
11762;DHT22;5938;47.098;15.474;2023-05-02T01:03:11;10.70;99.90
11762;DHT22;5938;47.098;15.474;2023-05-02T01:07:34;10.70;99.90
11762;DHT22;5938;47.098;15.474;2023-05-02T01:11:51;10.70;99.90
11762;DHT22;5938;47.098;15.474;2023-05-02T01:15:57;10.70;99.90
11762;DHT22;5938;47.098;15.474;2023-05-02T01:20:05;10.60;99.90
11762;DHT22;5938;47.098;15.474;2023-05-02T01:24:15;10.60;99.90
11762;DHT22;5938;47.098;15.474;2023-05-02T01:28:34;10.70;99.90
11762;DHT22;5938;47.098;15.474;2023-05-02T01:32:40;10.60;99.90
11762;DHT22;5938;47.098;15.474;2023-05-02T01:36:47;10.60;99.90
11762;DHT22;5938;47.098;15.474;2023-05-02T01:40:53;10.60;99.90
11762;DHT22;5938;47.098;15.474;2023-05-02T01:44:57;10.60;99.90
11762;DHT22;5938;47.098;15.474;2023-05-02T01:49:05;10.70;99.90
11762;DHT22;5938;47.098;15.474;2023-05-02T01:53:10;10.70;99.90
11762;DHT22;5938;47.098;15.474;2023-05-02T01:57:16;10.70;99.90
11762;DHT22;5938;47.098;15.474;2023-05-02T02:01:20;10.70;99.90
11762;DHT22;5938;47.098;15.474;2023-05-02T02:05:27;10.70;99.90
11762;DHT22;5938;47.098;15.474;2023-05-02T02:09:31;10.70;99.90
11762;DHT22;5938;47.098;15.474;2023-05-02T02:13:38;10.70;99.90
11762;DHT22;5938;47.098;15.474;2023-05-02T02:17:42;10.70;99.90
11762;DHT22;5938;47.098;15.474;2023-05-02T02:21:50;10.70;99.90
11762;DHT22;5938;47.098;15.474;2023-05-02T02:25:54;10.70;99.90
11762;DHT22;5938;47.098;15.474;2023-05-02T02:29:58;10.70;99.90
11762;DHT22;5938;47.098;15.474;2023-05-02T02:34:02;10.70;99.90
11762;DHT22;5938;47.098;15.474;2023-05-02T02:38:13;10.70;99.90
11762;DHT22;5938;47.098;15.474;2023-05-02T02:42:27;10.70;99.90
11762;DHT22;5938;47.098;15.474;2023-05-02T02:46:47;10.70;99.90
11762;DHT22;5938;47.098;15.474;2023-05-02T02:50:58;10.70;99.90
11762;DHT22;5938;47.098;15.474;2023-05-02T02:55:11;10.70;99.90
11762;DHT22;5938;47.098;15.474;2023-05-02T02:59:25;10.70;99.90
11762;DHT22;5938;47.098;15.474;2023-05-02T03:03:31;10.70;99.90
11762;DHT22;5938;47.098;15.474;2023-05-02T03:07:35;10.70;99.90
11762;DHT22;5938;47.098;15.474;2023-05-02T03:11:40;10.70;99.90
11762;DHT22;5938;47.098;15.474;2023-05-02T03:16:17;10.70;99.90
11762;DHT22;5938;47.098;15.474;2023-05-02T03:20:28;10.60;99.90
11762;DHT22;5938;47.098;15.474;2023-05-02T03:24:31;10.70;99.90
11762;DHT22;5938;47.098;15.474;2023-05-02T03:28:36;10.70;99.90
11762;DHT22;5938;47.098;15.474;2023-05-02T03:32:39;10.60;99.90
11762;DHT22;5938;47.098;15.474;2023-05-02T03:36:42;10.70;99.90
11762;DHT22;5938;47.098;15.474;2023-05-02T03:40:46;10.70;99.90
11762;DHT22;5938;47.098;15.474;2023-05-02T03:44:52;10.70;99.90
11762;DHT22;5938;47.098;15.474;2023-05-02T03:48:56;10.70;99.90
11762;DHT22;5938;47.098;15.474;2023-05-02T03:53:00;10.70;99.90
11762;DHT22;5938;47.098;15.474;2023-05-02T03:57:03;10.70;99.90
11762;DHT22;5938;47.098;15.474;2023-05-02T04:01:14;10.60;99.90
11762;DHT22;5938;47.098;15.474;2023-05-02T04:05:18;10.70;99.90
11762;DHT22;5938;47.098;15.474;2023-05-02T04:09:21;10.70;99.90
11762;DHT22;5938;47.098;15.474;2023-05-02T04:13:26;10.70;99.90
11762;DHT22;5938;47.098;15.474;2023-05-02T04:17:31;10.70;99.90
11762;DHT22;5938;47.098;15.474;2023-05-02T04:21:36;10.70;99.90
11762;DHT22;5938;47.098;15.474;2023-05-02T04:25:39;10.60;99.90
11762;DHT22;5938;47.098;15.474;2023-05-02T04:29:42;10.70;99.90
11762;DHT22;5938;47.098;15.474;2023-05-02T04:33:47;10.70;99.90
11762;DHT22;5938;47.098;15.474;2023-05-02T04:37:50;10.70;99.90
11762;DHT22;5938;47.098;15.474;2023-05-02T04:41:54;10.80;99.90
11762;DHT22;5938;47.098;15.474;2023-05-02T04:45:57;10.80;99.90
11762;DHT22;5938;47.098;15.474;2023-05-02T04:50:03;10.80;99.90
11762;DHT22;5938;47.098;15.474;2023-05-02T04:54:07;10.80;99.90
11762;DHT22;5938;47.098;15.474;2023-05-02T04:58:11;10.90;99.90
11762;DHT22;5938;47.098;15.474;2023-05-02T05:02:15;11.00;99.90
11762;DHT22;5938;47.098;15.474;2023-05-02T05:06:20;11.10;99.90
11762;DHT22;5938;47.098;15.474;2023-05-02T05:10:25;11.10;99.90
11762;DHT22;5938;47.098;15.474;2023-05-02T05:14:29;11.10;99.90
11762;DHT22;5938;47.098;15.474;2023-05-02T05:18:33;11.10;99.90
11762;DHT22;5938;47.098;15.474;2023-05-02T05:22:43;11.20;99.90
11762;DHT22;5938;47.098;15.474;2023-05-02T05:26:47;11.20;99.90
11762;DHT22;5938;47.098;15.474;2023-05-02T05:30:50;11.40;99.90
11762;DHT22;5938;47.098;15.474;2023-05-02T05:34:54;11.40;99.90
11762;DHT22;5938;47.098;15.474;2023-05-02T05:38:59;11.40;99.90
11762;DHT22;5938;47.098;15.474;2023-05-02T05:43:02;11.40;99.90
11762;DHT22;5938;47.098;15.474;2023-05-02T05:47:06;11.50;99.90
11762;DHT22;5938;47.098;15.474;2023-05-02T05:51:10;11.60;99.90
11762;DHT22;5938;47.098;15.474;2023-05-02T05:55:15;11.60;99.90
11762;DHT22;5938;47.098;15.474;2023-05-02T05:59:19;11.60;99.90
11762;DHT22;5938;47.098;15.474;2023-05-02T06:03:23;11.60;99.90
11762;DHT22;5938;47.098;15.474;2023-05-02T06:07:28;11.70;99.90
11762;DHT22;5938;47.098;15.474;2023-05-02T06:11:39;11.70;99.90
11762;DHT22;5938;47.098;15.474;2023-05-02T06:15:43;11.70;99.90
11762;DHT22;5938;47.098;15.474;2023-05-02T06:19:47;11.70;99.90
11762;DHT22;5938;47.098;15.474;2023-05-02T06:23:51;11.60;99.90
11762;DHT22;5938;47.098;15.474;2023-05-02T06:28:02;11.60;99.90
11762;DHT22;5938;47.098;15.474;2023-05-02T06:32:15;11.60;99.90
11762;DHT22;5938;47.098;15.474;2023-05-02T06:36:18;11.60;99.90
11762;DHT22;5938;47.098;15.474;2023-05-02T06:40:22;11.60;99.90
11762;DHT22;5938;47.098;15.474;2023-05-02T06:44:28;11.70;99.90
11762;DHT22;5938;47.098;15.474;2023-05-02T06:48:34;11.80;99.90
11762;DHT22;5938;47.098;15.474;2023-05-02T06:52:37;11.80;99.90
11762;DHT22;5938;47.098;15.474;2023-05-02T06:56:41;11.80;99.90
11762;DHT22;5938;47.098;15.474;2023-05-02T07:00:47;11.80;99.90
11762;DHT22;5938;47.098;15.474;2023-05-02T07:04:51;11.80;99.90
11762;DHT22;5938;47.098;15.474;2023-05-02T07:08:55;11.90;99.90
11762;DHT22;5938;47.098;15.474;2023-05-02T07:12:59;12.10;99.90
11762;DHT22;5938;47.098;15.474;2023-05-02T07:17:04;12.10;99.90
11762;DHT22;5938;47.098;15.474;2023-05-02T07:21:08;12.20;99.90
11762;DHT22;5938;47.098;15.474;2023-05-02T07:25:12;12.40;99.90
11762;DHT22;5938;47.098;15.474;2023-05-02T07:29:16;12.60;99.90
11762;DHT22;5938;47.098;15.474;2023-05-02T07:33:21;12.60;99.90
11762;DHT22;5938;47.098;15.474;2023-05-02T07:37:25;12.70;99.90
11762;DHT22;5938;47.098;15.474;2023-05-02T07:41:29;12.80;99.90
11762;DHT22;5938;47.098;15.474;2023-05-02T07:45:32;13.00;99.90
11762;DHT22;5938;47.098;15.474;2023-05-02T07:49:39;13.20;99.90
11762;DHT22;5938;47.098;15.474;2023-05-02T07:53:45;13.30;99.90
11762;DHT22;5938;47.098;15.474;2023-05-02T07:58:00;13.50;99.90
11762;DHT22;5938;47.098;15.474;2023-05-02T08:02:13;13.70;99.90
11762;DHT22;5938;47.098;15.474;2023-05-02T08:06:23;13.60;99.90
11762;DHT22;5938;47.098;15.474;2023-05-02T08:10:27;13.70;99.90
11762;DHT22;5938;47.098;15.474;2023-05-02T08:14:31;14.00;99.90
11762;DHT22;5938;47.098;15.474;2023-05-02T08:18:35;13.90;99.90
11762;DHT22;5938;47.098;15.474;2023-05-02T08:22:42;13.90;99.90
11762;DHT22;5938;47.098;15.474;2023-05-02T08:26:45;13.90;99.90
11762;DHT22;5938;47.098;15.474;2023-05-02T08:30:49;13.90;99.90
11762;DHT22;5938;47.098;15.474;2023-05-02T08:34:54;14.30;99.90
11762;DHT22;5938;47.098;15.474;2023-05-02T08:39:00;14.80;99.90
11762;DHT22;5938;47.098;15.474;2023-05-02T08:43:05;15.30;99.90
11762;DHT22;5938;47.098;15.474;2023-05-02T08:47:10;16.00;99.90
11762;DHT22;5938;47.098;15.474;2023-05-02T08:51:16;16.30;99.90
11762;DHT22;5938;47.098;15.474;2023-05-02T08:55:23;17.10;99.90
11762;DHT22;5938;47.098;15.474;2023-05-02T08:59:28;17.80;99.90
11762;DHT22;5938;47.098;15.474;2023-05-02T09:03:34;17.40;99.90
11762;DHT22;5938;47.098;15.474;2023-05-02T09:07:45;17.30;99.90
11762;DHT22;5938;47.098;15.474;2023-05-02T09:11:51;17.20;99.90
11762;DHT22;5938;47.098;15.474;2023-05-02T09:15:59;17.40;99.90
11762;DHT22;5938;47.098;15.474;2023-05-02T09:20:04;17.70;99.80
11762;DHT22;5938;47.098;15.474;2023-05-02T09:24:17;17.90;99.80
11762;DHT22;5938;47.098;15.474;2023-05-02T09:28:37;18.10;98.90
11762;DHT22;5938;47.098;15.474;2023-05-02T09:32:44;17.70;99.20
11762;DHT22;5938;47.098;15.474;2023-05-02T09:36:48;18.00;99.90
11762;DHT22;5938;47.098;15.474;2023-05-02T09:40:55;18.80;99.20
11762;DHT22;5938;47.098;15.474;2023-05-02T09:45:00;18.80;98.40
11762;DHT22;5938;47.098;15.474;2023-05-02T09:49:05;19.00;96.50
11762;DHT22;5938;47.098;15.474;2023-05-02T09:53:09;19.40;96.60
11762;DHT22;5938;47.098;15.474;2023-05-02T09:57:13;19.80;95.10
11762;DHT22;5938;47.098;15.474;2023-05-02T10:01:18;19.50;95.80
11762;DHT22;5938;47.098;15.474;2023-05-02T10:05:22;19.30;95.00
11762;DHT22;5938;47.098;15.474;2023-05-02T10:09:26;18.80;94.80
11762;DHT22;5938;47.098;15.474;2023-05-02T10:13:31;18.70;95.40
11762;DHT22;5938;47.098;15.474;2023-05-02T10:17:39;18.60;99.10
11762;DHT22;5938;47.098;15.474;2023-05-02T10:21:45;19.00;95.80
11762;DHT22;5938;47.098;15.474;2023-05-02T10:25:50;19.00;95.50
11762;DHT22;5938;47.098;15.474;2023-05-02T10:29:54;18.80;94.80
11762;DHT22;5938;47.098;15.474;2023-05-02T10:34:02;18.10;95.80
11762;DHT22;5938;47.098;15.474;2023-05-02T10:38:07;17.80;95.70
11762;DHT22;5938;47.098;15.474;2023-05-02T10:42:11;17.80;95.70
11762;DHT22;5938;47.098;15.474;2023-05-02T10:46:29;18.10;96.00
11762;DHT22;5938;47.098;15.474;2023-05-02T10:50:46;18.20;95.20
11762;DHT22;5938;47.098;15.474;2023-05-02T10:54:50;17.60;94.50
11762;DHT22;5938;47.098;15.474;2023-05-02T10:59:25;17.50;96.40
11762;DHT22;5938;47.098;15.474;2023-05-02T11:03:56;17.50;97.60
11762;DHT22;5938;47.098;15.474;2023-05-02T11:08:31;17.20;98.10
11762;DHT22;5938;47.098;15.474;2023-05-02T11:12:45;16.90;97.30
11762;DHT22;5938;47.098;15.474;2023-05-02T11:17:08;16.30;98.50
11762;DHT22;5938;47.098;15.474;2023-05-02T11:21:29;15.90;99.90
11762;DHT22;5938;47.098;15.474;2023-05-02T11:25:35;15.40;99.90
11762;DHT22;5938;47.098;15.474;2023-05-02T11:29:52;15.50;99.90
11762;DHT22;5938;47.098;15.474;2023-05-02T11:33:56;15.70;99.90
11762;DHT22;5938;47.098;15.474;2023-05-02T11:38:05;15.80;99.90
11762;DHT22;5938;47.098;15.474;2023-05-02T11:42:09;15.60;99.90
11762;DHT22;5938;47.098;15.474;2023-05-02T11:46:13;15.40;99.90
11762;DHT22;5938;47.098;15.474;2023-05-02T11:50:18;15.30;99.90
11762;DHT22;5938;47.098;15.474;2023-05-02T11:54:23;15.40;99.90
11762;DHT22;5938;47.098;15.474;2023-05-02T11:58:29;15.40;99.90
11762;DHT22;5938;47.098;15.474;2023-05-02T12:02:37;15.50;99.90
11762;DHT22;5938;47.098;15.474;2023-05-02T12:06:53;15.20;99.90
11762;DHT22;5938;47.098;15.474;2023-05-02T12:10:59;15.00;99.90
11762;DHT22;5938;47.098;15.474;2023-05-02T12:15:03;14.90;99.90
11762;DHT22;5938;47.098;15.474;2023-05-02T12:19:08;15.00;99.90
11762;DHT22;5938;47.098;15.474;2023-05-02T12:23:12;15.00;99.90
11762;DHT22;5938;47.098;15.474;2023-05-02T12:27:18;15.10;99.90
11762;DHT22;5938;47.098;15.474;2023-05-02T12:31:22;15.00;99.90
11762;DHT22;5938;47.098;15.474;2023-05-02T12:35:29;14.70;99.90
11762;DHT22;5938;47.098;15.474;2023-05-02T12:39:37;14.30;99.90
11762;DHT22;5938;47.098;15.474;2023-05-02T12:44:00;14.00;99.90
11762;DHT22;5938;47.098;15.474;2023-05-02T12:48:20;13.80;99.90
11762;DHT22;5938;47.098;15.474;2023-05-02T12:52:46;13.70;99.90
11762;DHT22;5938;47.098;15.474;2023-05-02T12:56:49;13.60;99.90
11762;DHT22;5938;47.098;15.474;2023-05-02T13:00:55;13.20;99.90
11762;DHT22;5938;47.098;15.474;2023-05-02T13:04:59;12.90;99.90
11762;DHT22;5938;47.098;15.474;2023-05-02T13:09:03;12.70;99.90
11762;DHT22;5938;47.098;15.474;2023-05-02T13:13:07;12.50;99.90
11762;DHT22;5938;47.098;15.474;2023-05-02T13:17:12;12.70;99.90
11762;DHT22;5938;47.098;15.474;2023-05-02T13:21:17;12.70;99.90
11762;DHT22;5938;47.098;15.474;2023-05-02T13:25:20;12.90;99.90
11762;DHT22;5938;47.098;15.474;2023-05-02T13:29:23;12.90;99.90
11762;DHT22;5938;47.098;15.474;2023-05-02T13:33:30;13.00;99.90
11762;DHT22;5938;47.098;15.474;2023-05-02T13:37:34;13.10;99.90
11762;DHT22;5938;47.098;15.474;2023-05-02T13:41:38;13.10;99.90
11762;DHT22;5938;47.098;15.474;2023-05-02T13:45:41;13.10;99.90
11762;DHT22;5938;47.098;15.474;2023-05-02T13:49:47;13.10;99.90
11762;DHT22;5938;47.098;15.474;2023-05-02T13:53:51;13.30;99.90
11762;DHT22;5938;47.098;15.474;2023-05-02T13:57:55;13.60;99.90
11762;DHT22;5938;47.098;15.474;2023-05-02T14:01:59;13.80;99.90
11762;DHT22;5938;47.098;15.474;2023-05-02T14:06:07;13.80;99.90
11762;DHT22;5938;47.098;15.474;2023-05-02T14:10:11;13.70;99.90
11762;DHT22;5938;47.098;15.474;2023-05-02T14:14:15;13.70;99.90
11762;DHT22;5938;47.098;15.474;2023-05-02T14:18:20;13.70;99.90
11762;DHT22;5938;47.098;15.474;2023-05-02T14:22:26;13.60;99.90
11762;DHT22;5938;47.098;15.474;2023-05-02T14:26:31;13.50;99.90
11762;DHT22;5938;47.098;15.474;2023-05-02T14:30:35;13.30;99.90
11762;DHT22;5938;47.098;15.474;2023-05-02T14:34:39;13.40;99.90
11762;DHT22;5938;47.098;15.474;2023-05-02T14:38:45;13.30;99.90
11762;DHT22;5938;47.098;15.474;2023-05-02T14:42:49;13.10;99.90
11762;DHT22;5938;47.098;15.474;2023-05-02T14:46:53;12.90;99.90
11762;DHT22;5938;47.098;15.474;2023-05-02T14:50:59;13.00;99.90
11762;DHT22;5938;47.098;15.474;2023-05-02T14:55:08;12.90;99.90
11762;DHT22;5938;47.098;15.474;2023-05-02T14:59:13;13.10;99.90
11762;DHT22;5938;47.098;15.474;2023-05-02T15:03:17;13.10;99.90
11762;DHT22;5938;47.098;15.474;2023-05-02T15:07:21;13.00;99.90
11762;DHT22;5938;47.098;15.474;2023-05-02T15:11:28;12.90;99.90
11762;DHT22;5938;47.098;15.474;2023-05-02T15:15:32;12.90;99.90
11762;DHT22;5938;47.098;15.474;2023-05-02T15:19:35;12.70;99.90
11762;DHT22;5938;47.098;15.474;2023-05-02T15:23:39;12.70;99.90
11762;DHT22;5938;47.098;15.474;2023-05-02T15:27:45;12.70;99.90
11762;DHT22;5938;47.098;15.474;2023-05-02T15:31:49;12.80;99.90
11762;DHT22;5938;47.098;15.474;2023-05-02T15:35:56;12.80;99.90
11762;DHT22;5938;47.098;15.474;2023-05-02T15:40:01;12.80;99.90
11762;DHT22;5938;47.098;15.474;2023-05-02T15:44:08;12.60;99.90
11762;DHT22;5938;47.098;15.474;2023-05-02T15:48:12;12.50;99.90
11762;DHT22;5938;47.098;15.474;2023-05-02T15:52:16;12.30;99.90
11762;DHT22;5938;47.098;15.474;2023-05-02T15:56:20;12.20;99.90
11762;DHT22;5938;47.098;15.474;2023-05-02T16:00:25;12.20;99.90
11762;DHT22;5938;47.098;15.474;2023-05-02T16:04:31;12.20;99.90
11762;DHT22;5938;47.098;15.474;2023-05-02T16:08:36;12.20;99.90
11762;DHT22;5938;47.098;15.474;2023-05-02T16:12:41;12.00;99.90
11762;DHT22;5938;47.098;15.474;2023-05-02T16:16:47;11.90;99.90
11762;DHT22;5938;47.098;15.474;2023-05-02T16:20:53;12.00;99.90
11762;DHT22;5938;47.098;15.474;2023-05-02T16:24:58;12.00;99.90
11762;DHT22;5938;47.098;15.474;2023-05-02T16:29:03;11.90;99.90
11762;DHT22;5938;47.098;15.474;2023-05-02T16:33:11;11.90;99.90
11762;DHT22;5938;47.098;15.474;2023-05-02T16:37:15;11.80;99.90
11762;DHT22;5938;47.098;15.474;2023-05-02T16:41:20;11.80;99.90
11762;DHT22;5938;47.098;15.474;2023-05-02T16:45:24;11.80;99.90
11762;DHT22;5938;47.098;15.474;2023-05-02T16:49:31;11.70;99.90
11762;DHT22;5938;47.098;15.474;2023-05-02T16:53:35;11.80;99.90
11762;DHT22;5938;47.098;15.474;2023-05-02T16:57:39;11.70;99.90
11762;DHT22;5938;47.098;15.474;2023-05-02T17:01:44;11.60;99.90
11762;DHT22;5938;47.098;15.474;2023-05-02T17:05:49;11.50;99.90
11762;DHT22;5938;47.098;15.474;2023-05-02T17:09:53;11.40;99.90
11762;DHT22;5938;47.098;15.474;2023-05-02T17:13:57;11.30;99.90
11762;DHT22;5938;47.098;15.474;2023-05-02T17:18:03;11.30;99.90
11762;DHT22;5938;47.098;15.474;2023-05-02T17:22:11;11.30;99.90
11762;DHT22;5938;47.098;15.474;2023-05-02T17:26:15;11.20;99.90
11762;DHT22;5938;47.098;15.474;2023-05-02T17:30:20;11.20;99.90
11762;DHT22;5938;47.098;15.474;2023-05-02T17:34:24;11.10;99.90
11762;DHT22;5938;47.098;15.474;2023-05-02T17:38:32;11.10;99.90
11762;DHT22;5938;47.098;15.474;2023-05-02T17:42:37;11.20;99.90
11762;DHT22;5938;47.098;15.474;2023-05-02T17:46:40;11.10;99.90
11762;DHT22;5938;47.098;15.474;2023-05-02T17:50:44;11.10;99.90
11762;DHT22;5938;47.098;15.474;2023-05-02T17:54:52;11.10;99.90
11762;DHT22;5938;47.098;15.474;2023-05-02T17:58:56;11.00;99.90
11762;DHT22;5938;47.098;15.474;2023-05-02T18:03:02;11.00;99.90
11762;DHT22;5938;47.098;15.474;2023-05-02T18:07:07;11.00;99.90
11762;DHT22;5938;47.098;15.474;2023-05-02T18:11:18;11.10;99.90
11762;DHT22;5938;47.098;15.474;2023-05-02T18:15:23;11.10;99.90
11762;DHT22;5938;47.098;15.474;2023-05-02T18:19:29;11.10;99.90
11762;DHT22;5938;47.098;15.474;2023-05-02T18:23:32;11.10;99.90
11762;DHT22;5938;47.098;15.474;2023-05-02T18:27:39;11.00;99.90
11762;DHT22;5938;47.098;15.474;2023-05-02T18:31:47;11.00;99.90
11762;DHT22;5938;47.098;15.474;2023-05-02T18:40:30;10.90;99.90
11762;DHT22;5938;47.098;15.474;2023-05-02T18:44:41;10.90;99.90
11762;DHT22;5938;47.098;15.474;2023-05-02T18:48:47;10.80;99.90
11762;DHT22;5938;47.098;15.474;2023-05-02T18:52:52;10.80;99.90
11762;DHT22;5938;47.098;15.474;2023-05-02T18:56:57;10.80;99.90
11762;DHT22;5938;47.098;15.474;2023-05-02T19:01:15;10.80;99.90
11762;DHT22;5938;47.098;15.474;2023-05-02T19:05:22;10.80;99.90
11762;DHT22;5938;47.098;15.474;2023-05-02T19:09:29;10.80;99.90
11762;DHT22;5938;47.098;15.474;2023-05-02T19:13:38;10.80;99.90
11762;DHT22;5938;47.098;15.474;2023-05-02T19:17:45;10.70;99.90
11762;DHT22;5938;47.098;15.474;2023-05-02T19:21:52;10.70;99.90
11762;DHT22;5938;47.098;15.474;2023-05-02T19:25:57;10.70;99.90
11762;DHT22;5938;47.098;15.474;2023-05-02T19:30:03;10.70;99.90
11762;DHT22;5938;47.098;15.474;2023-05-02T19:34:10;10.70;99.90
11762;DHT22;5938;47.098;15.474;2023-05-02T19:38:15;10.60;99.90
11762;DHT22;5938;47.098;15.474;2023-05-02T19:42:20;10.60;99.90
11762;DHT22;5938;47.098;15.474;2023-05-02T19:46:24;10.70;99.90
11762;DHT22;5938;47.098;15.474;2023-05-02T19:50:30;10.60;99.90
11762;DHT22;5938;47.098;15.474;2023-05-02T19:54:37;10.70;99.90
11762;DHT22;5938;47.098;15.474;2023-05-02T19:58:40;10.60;99.90
11762;DHT22;5938;47.098;15.474;2023-05-02T20:02:44;10.60;99.90
11762;DHT22;5938;47.098;15.474;2023-05-02T20:06:52;10.60;99.90
11762;DHT22;5938;47.098;15.474;2023-05-02T20:10:57;10.60;99.90
11762;DHT22;5938;47.098;15.474;2023-05-02T20:15:03;10.60;99.90
11762;DHT22;5938;47.098;15.474;2023-05-02T20:19:07;10.50;99.90
11762;DHT22;5938;47.098;15.474;2023-05-02T20:23:13;10.50;99.90
11762;DHT22;5938;47.098;15.474;2023-05-02T20:27:16;10.50;99.90
11762;DHT22;5938;47.098;15.474;2023-05-02T20:31:20;10.60;99.90
11762;DHT22;5938;47.098;15.474;2023-05-02T20:35:24;10.60;99.90
11762;DHT22;5938;47.098;15.474;2023-05-02T20:39:30;10.50;99.90
11762;DHT22;5938;47.098;15.474;2023-05-02T20:43:34;10.40;99.90
11762;DHT22;5938;47.098;15.474;2023-05-02T20:47:40;10.40;99.90
11762;DHT22;5938;47.098;15.474;2023-05-02T20:51:44;10.40;99.90
11762;DHT22;5938;47.098;15.474;2023-05-02T20:55:49;10.40;99.90
11762;DHT22;5938;47.098;15.474;2023-05-02T20:59:53;10.40;99.90
11762;DHT22;5938;47.098;15.474;2023-05-02T21:04:00;10.30;99.90
11762;DHT22;5938;47.098;15.474;2023-05-02T21:08:04;10.30;99.90
11762;DHT22;5938;47.098;15.474;2023-05-02T21:12:09;10.30;99.90
11762;DHT22;5938;47.098;15.474;2023-05-02T21:16:14;10.40;99.90
11762;DHT22;5938;47.098;15.474;2023-05-02T21:20:18;10.40;99.90
11762;DHT22;5938;47.098;15.474;2023-05-02T21:24:21;10.40;99.90
11762;DHT22;5938;47.098;15.474;2023-05-02T21:28:25;10.40;99.90
11762;DHT22;5938;47.098;15.474;2023-05-02T21:32:29;10.30;99.90
11762;DHT22;5938;47.098;15.474;2023-05-02T21:36:32;10.30;99.90
11762;DHT22;5938;47.098;15.474;2023-05-02T21:40:36;10.30;99.90
11762;DHT22;5938;47.098;15.474;2023-05-02T21:44:41;10.30;99.90
11762;DHT22;5938;47.098;15.474;2023-05-02T21:48:45;10.20;99.90
11762;DHT22;5938;47.098;15.474;2023-05-02T21:52:48;10.30;99.90
11762;DHT22;5938;47.098;15.474;2023-05-02T21:56:52;10.20;99.90
11762;DHT22;5938;47.098;15.474;2023-05-02T22:00:57;10.30;99.90
11762;DHT22;5938;47.098;15.474;2023-05-02T22:05:00;10.20;99.90
11762;DHT22;5938;47.098;15.474;2023-05-02T22:09:05;10.20;99.90
11762;DHT22;5938;47.098;15.474;2023-05-02T22:13:10;10.20;99.90
11762;DHT22;5938;47.098;15.474;2023-05-02T22:17:15;10.20;99.90
11762;DHT22;5938;47.098;15.474;2023-05-02T22:21:19;10.00;99.90
11762;DHT22;5938;47.098;15.474;2023-05-02T22:25:24;10.10;99.90
11762;DHT22;5938;47.098;15.474;2023-05-02T22:29:27;10.10;99.90
11762;DHT22;5938;47.098;15.474;2023-05-02T22:33:32;10.10;99.90
11762;DHT22;5938;47.098;15.474;2023-05-02T22:37:36;10.10;99.90
11762;DHT22;5938;47.098;15.474;2023-05-02T22:41:39;10.00;99.90
11762;DHT22;5938;47.098;15.474;2023-05-02T22:45:42;10.00;99.90
11762;DHT22;5938;47.098;15.474;2023-05-02T22:49:48;10.10;99.90
11762;DHT22;5938;47.098;15.474;2023-05-02T22:53:51;10.10;99.90
11762;DHT22;5938;47.098;15.474;2023-05-02T22:57:56;10.10;99.90
11762;DHT22;5938;47.098;15.474;2023-05-02T23:02:00;10.10;99.90
11762;DHT22;5938;47.098;15.474;2023-05-02T23:06:05;10.00;99.90
11762;DHT22;5938;47.098;15.474;2023-05-02T23:10:09;10.10;99.90
11762;DHT22;5938;47.098;15.474;2023-05-02T23:14:12;10.00;99.90
11762;DHT22;5938;47.098;15.474;2023-05-02T23:18:16;10.00;99.90
11762;DHT22;5938;47.098;15.474;2023-05-02T23:22:20;10.00;99.90
11762;DHT22;5938;47.098;15.474;2023-05-02T23:26:24;10.00;99.90
11762;DHT22;5938;47.098;15.474;2023-05-02T23:30:28;10.00;99.90
11762;DHT22;5938;47.098;15.474;2023-05-02T23:34:31;9.90;99.90
11762;DHT22;5938;47.098;15.474;2023-05-02T23:38:36;10.00;99.90
11762;DHT22;5938;47.098;15.474;2023-05-02T23:42:40;10.00;99.90
11762;DHT22;5938;47.098;15.474;2023-05-02T23:46:43;10.00;99.90
11762;DHT22;5938;47.098;15.474;2023-05-02T23:50:47;9.90;99.90
11762;DHT22;5938;47.098;15.474;2023-05-02T23:54:52;9.90;99.90
11762;DHT22;5938;47.098;15.474;2023-05-02T23:58:55;9.90;99.90
